Time;durP1;ratioP1;P1;durP2;ratioP2;P2;SDS_P1;SDS_P2;PMS_P1;PMS_P2;Temp;Humidity;BMP_temperature;BMP_pressure;BME280_temperature;BME280_humidity;BME280_pressure;Samples;Min_cycle;Max_cycle;Signal;HPM_P1;HPM_P2
2023/09/08 00:00:41;;;;;;;7.95;3.55;;;18.90;61.00;;;;;;5033039;28;20061;-49
2023/09/08 00:03:06;;;;;;;5.25;3.50;;;18.90;61.00;;;;;;5033044;28;20108;-51
2023/09/08 00:05:32;;;;;;;6.55;3.72;;;18.90;61.10;;;;;;5032356;28;20061;-50
2023/09/08 00:07:57;;;;;;;7.43;3.92;;;18.90;61.10;;;;;;5032265;28;20383;-48
2023/09/08 00:10:23;;;;;;;6.80;3.70;;;18.90;61.30;;;;;;5032737;28;20026;-51
2023/09/08 00:12:49;;;;;;;4.93;3.05;;;18.80;61.10;;;;;;5031682;28;20030;-52
2023/09/08 00:15:14;;;;;;;6.43;3.65;;;18.80;60.80;;;;;;5032689;28;20030;-51
2023/09/08 00:17:40;;;;;;;5.65;3.55;;;18.80;61.00;;;;;;5032122;28;20026;-48
2023/09/08 00:20:09;;;;;;;6.22;3.70;;;18.80;61.10;;;;;;5032275;28;20386;-52
2023/09/08 00:22:37;;;;;;;3.88;3.03;;;18.80;61.10;;;;;;5032995;28;20026;-50
2023/09/08 00:25:03;;;;;;;5.90;3.60;;;18.80;61.50;;;;;;5033128;28;20018;-49
2023/09/08 00:27:30;;;;;;;7.30;4.80;;;18.80;61.50;;;;;;5032789;28;20041;-51
2023/09/08 00:29:55;;;;;;;8.68;4.13;;;18.80;61.50;;;;;;5032184;28;20029;-50
2023/09/08 00:32:21;;;;;;;6.80;4.50;;;18.70;61.50;;;;;;5032373;28;20034;-48
2023/09/08 00:34:47;;;;;;;5.90;3.78;;;18.70;61.50;;;;;;5032248;28;20061;-51
2023/09/08 00:37:12;;;;;;;7.22;3.80;;;18.70;61.60;;;;;;5031546;28;20025;-50
2023/09/08 00:39:38;;;;;;;5.70;3.70;;;18.70;61.50;;;;;;5032612;28;20029;-52
2023/09/08 00:42:04;;;;;;;5.20;3.40;;;18.70;61.50;;;;;;5031934;28;20030;-51
2023/09/08 00:44:30;;;;;;;6.05;3.40;;;18.70;61.60;;;;;;5032971;28;20029;-51
2023/09/08 00:46:56;;;;;;;5.50;3.50;;;18.70;61.70;;;;;;5031903;28;20045;-51
2023/09/08 00:49:22;;;;;;;5.45;3.53;;;18.70;61.70;;;;;;5031510;28;20076;-51
2023/09/08 00:51:48;;;;;;;4.65;3.30;;;18.70;61.80;;;;;;5029169;28;20033;-52
2023/09/08 00:54:14;;;;;;;8.05;3.40;;;18.70;61.70;;;;;;5031408;28;20394;-50
2023/09/08 00:56:40;;;;;;;6.55;3.42;;;18.70;62.00;;;;;;5030944;28;20087;-52
2023/09/08 00:59:07;;;;;;;6.13;3.67;;;18.70;62.10;;;;;;5032000;28;20030;-51
2023/09/08 01:01:34;;;;;;;5.95;3.58;;;18.70;62.20;;;;;;5028772;28;20109;-49
2023/09/08 01:04:00;;;;;;;5.97;3.60;;;18.70;62.50;;;;;;5031576;28;20052;-51
2023/09/08 01:06:27;;;;;;;6.10;3.90;;;18.60;62.90;;;;;;5031461;28;20417;-48
2023/09/08 01:08:54;;;;;;;6.68;3.88;;;18.60;63.10;;;;;;5031290;28;20053;-51
2023/09/08 01:11:20;;;;;;;9.40;3.88;;;18.60;63.40;;;;;;5031138;28;20459;-53
2023/09/08 01:13:45;;;;;;;5.60;4.05;;;18.50;63.40;;;;;;5030477;28;20026;-49
2023/09/08 01:16:11;;;;;;;6.50;3.88;;;18.50;63.40;;;;;;5031295;28;20034;-52
2023/09/08 01:18:37;;;;;;;6.63;3.95;;;18.50;63.40;;;;;;5031423;28;20078;-52
2023/09/08 01:21:32;;;;;;;6.15;3.95;;;18.50;63.30;;;;;;5030133;28;20037;-50
2023/09/08 01:24:15;;;;;;;5.15;3.85;;;18.50;63.30;;;;;;5027447;28;20093;-51
2023/09/08 01:26:41;;;;;;;6.22;3.80;;;18.40;63.40;;;;;;5027414;28;20061;-51
2023/09/08 01:29:10;;;;;;;6.22;3.70;;;18.40;63.40;;;;;;5011367;28;20018;-51
2023/09/08 01:31:37;;;;;;;6.70;4.25;;;18.40;63.50;;;;;;5010894;28;20037;-48
2023/09/08 01:34:06;;;;;;;5.85;4.03;;;18.40;63.70;;;;;;5010550;28;20038;-50
2023/09/08 01:36:35;;;;;;;6.47;3.88;;;18.40;64.20;;;;;;5011100;28;20039;-50
2023/09/08 01:39:01;;;;;;;6.15;3.85;;;18.40;64.90;;;;;;5011888;28;20030;-48
2023/09/08 01:41:27;;;;;;;6.57;3.80;;;18.30;65.10;;;;;;5011799;28;20034;-51
2023/09/08 01:43:54;;;;;;;5.38;3.42;;;18.30;65.00;;;;;;5009985;28;20033;-52
2023/09/08 01:46:20;;;;;;;7.60;3.97;;;18.30;64.80;;;;;;5009875;28;20029;-50
2023/09/08 01:48:45;;;;;;;8.10;4.45;;;18.30;65.40;;;;;;5011000;28;20026;-53
2023/09/08 01:51:11;;;;;;;6.72;4.05;;;18.30;65.80;;;;;;5010904;28;20030;-49
2023/09/08 01:53:36;;;;;;;6.78;4.25;;;18.20;66.30;;;;;;5015335;28;20037;-51
2023/09/08 01:56:02;;;;;;;6.47;4.40;;;18.20;66.80;;;;;;5030815;28;20033;-52
2023/09/08 01:58:29;;;;;;;6.20;4.75;;;18.20;67.50;;;;;;5030925;28;20029;-51
2023/09/08 02:00:55;;;;;;;7.35;4.72;;;18.10;67.80;;;;;;5030663;28;20038;-51
2023/09/08 02:03:21;;;;;;;8.55;4.53;;;18.10;67.90;;;;;;5030445;28;20038;-49
2023/09/08 02:05:46;;;;;;;7.32;4.78;;;18.10;68.10;;;;;;5030143;28;20061;-49
2023/09/08 02:08:12;;;;;;;8.00;5.05;;;18.10;68.30;;;;;;5030292;28;20367;-48
2023/09/08 02:10:40;;;;;;;6.75;4.70;;;18.00;68.40;;;;;;5030051;28;20030;-51
2023/09/08 02:13:06;;;;;;;9.20;4.70;;;18.00;68.70;;;;;;5030326;28;20030;-48
2023/09/08 02:15:34;;;;;;;7.10;5.07;;;18.00;69.30;;;;;;5030013;28;20042;-51
2023/09/08 02:18:00;;;;;;;7.97;5.20;;;17.90;69.70;;;;;;5030685;28;20492;-49
2023/09/08 02:20:25;;;;;;;10.13;5.53;;;17.90;70.10;;;;;;5012961;28;20101;-48
2023/09/08 02:22:54;;;;;;;6.95;5.53;;;17.90;70.30;;;;;;5013005;28;20038;-49
2023/09/08 02:25:20;;;;;;;7.75;5.43;;;17.90;70.50;;;;;;5030199;28;20096;-52
2023/09/08 02:27:45;;;;;;;9.10;5.20;;;17.80;70.70;;;;;;5030030;28;20030;-50
2023/09/08 02:30:11;;;;;;;8.40;5.45;;;17.80;70.70;;;;;;5030741;28;20551;-52
2023/09/08 02:32:37;;;;;;;11.30;5.28;;;17.80;70.90;;;;;;5030625;28;20065;-49
2023/09/08 02:35:03;;;;;;;12.90;5.63;;;17.70;71.00;;;;;;5030840;28;20049;-50
2023/09/08 02:37:28;;;;;;;7.47;5.45;;;17.70;71.20;;;;;;5029166;28;20029;-51
2023/09/08 02:39:54;;;;;;;7.43;5.10;;;17.70;71.40;;;;;;5030168;28;20045;-51
2023/09/08 02:42:19;;;;;;;8.90;5.28;;;17.60;71.40;;;;;;5029818;28;20038;-51
2023/09/08 02:44:45;;;;;;;8.35;5.13;;;17.60;71.50;;;;;;5030418;28;20036;-50
2023/09/08 02:47:11;;;;;;;8.77;5.60;;;17.60;71.70;;;;;;5029881;28;20058;-51
2023/09/08 02:49:36;;;;;;;9.75;5.47;;;17.50;71.80;;;;;;5030378;28;20022;-52
2023/09/08 02:52:02;;;;;;;8.25;5.45;;;17.50;71.80;;;;;;5030061;28;20057;-52
2023/09/08 02:54:28;;;;;;;10.52;5.82;;;17.50;72.00;;;;;;5029983;28;20532;-52
2023/09/08 02:56:53;;;;;;;10.60;5.75;;;17.50;72.00;;;;;;5029817;28;20551;-51
2023/09/08 02:59:19;;;;;;;9.55;5.85;;;17.40;72.00;;;;;;5030290;28;20080;-50
2023/09/08 03:01:45;;;;;;;8.25;5.28;;;17.40;71.90;;;;;;5027414;28;20013;-52
2023/09/08 03:04:10;;;;;;;10.25;5.70;;;17.40;72.10;;;;;;5028913;28;20041;-52
2023/09/08 03:06:36;;;;;;;7.70;4.88;;;17.30;72.10;;;;;;5030422;28;20034;-52
2023/09/08 03:09:02;;;;;;;8.10;5.40;;;17.30;72.20;;;;;;5030125;28;20018;-52
2023/09/08 03:11:28;;;;;;;9.80;5.80;;;17.20;72.40;;;;;;5029243;28;20034;-50
2023/09/08 03:13:53;;;;;;;7.13;5.25;;;17.20;72.70;;;;;;5030379;28;20045;-53
2023/09/08 03:16:19;;;;;;;7.13;5.05;;;17.20;72.70;;;;;;5030434;28;20026;-52
2023/09/08 03:18:45;;;;;;;8.82;5.72;;;17.20;72.90;;;;;;5030139;28;20030;-52
2023/09/08 03:21:14;;;;;;;7.80;5.45;;;17.20;73.10;;;;;;5028223;28;20180;-52
2023/09/08 03:23:42;;;;;;;7.00;5.20;;;17.20;73.10;;;;;;5030204;28;20037;-53
2023/09/08 03:26:08;;;;;;;10.00;5.60;;;17.10;73.30;;;;;;5030252;28;20045;-50
2023/09/08 03:28:35;;;;;;;8.90;5.28;;;17.10;73.40;;;;;;5030342;28;20041;-52
2023/09/08 03:31:02;;;;;;;10.95;5.70;;;17.10;73.30;;;;;;5030242;28;20057;-51
2023/09/08 03:33:27;;;;;;;7.13;5.15;;;17.10;73.40;;;;;;5030118;28;20034;-51
2023/09/08 03:35:53;;;;;;;10.55;5.75;;;17.10;73.50;;;;;;5028444;28;20017;-53
2023/09/08 03:38:18;;;;;;;8.07;5.70;;;17.10;73.50;;;;;;5029516;28;20094;-50
2023/09/08 03:40:44;;;;;;;10.43;5.75;;;17.10;73.60;;;;;;5029609;28;20469;-54
2023/09/08 03:43:10;;;;;;;8.63;5.28;;;17.10;73.70;;;;;;5030183;28;20052;-52
2023/09/08 03:45:36;;;;;;;6.95;5.35;;;17.00;73.50;;;;;;5029862;28;20086;-53
2023/09/08 03:48:01;;;;;;;7.20;5.65;;;17.10;73.50;;;;;;5030821;28;20049;-50
2023/09/08 03:50:27;;;;;;;8.38;5.35;;;17.10;73.50;;;;;;5030104;28;20026;-53
2023/09/08 03:52:53;;;;;;;8.30;5.10;;;17.00;73.30;;;;;;5030185;28;20026;-53
2023/09/08 03:55:19;;;;;;;8.23;5.50;;;17.00;73.40;;;;;;5030432;28;20050;-52
2023/09/08 03:57:45;;;;;;;9.52;5.47;;;17.00;73.40;;;;;;5030154;28;20037;-53
2023/09/08 04:00:11;;;;;;;8.40;5.25;;;17.00;73.50;;;;;;5030551;28;20177;-51
2023/09/08 04:02:37;;;;;;;6.30;4.53;;;17.00;73.60;;;;;;5029978;28;20022;-50
2023/09/08 04:05:03;;;;;;;8.95;5.28;;;17.00;73.60;;;;;;5030640;28;20030;-51
2023/09/08 04:07:29;;;;;;;6.97;4.82;;;17.00;73.50;;;;;;5030669;28;20048;-52
2023/09/08 04:09:54;;;;;;;8.13;5.47;;;17.00;73.40;;;;;;5031394;28;20030;-52
2023/09/08 04:12:20;;;;;;;7.32;4.93;;;17.00;73.50;;;;;;5031296;28;20026;-53
2023/09/08 04:14:45;;;;;;;7.43;5.03;;;17.00;73.50;;;;;;5031144;28;20037;-53
2023/09/08 04:17:11;;;;;;;6.88;5.13;;;17.00;73.70;;;;;;5030993;28;20048;-53
2023/09/08 04:19:37;;;;;;;7.35;5.03;;;17.00;74.00;;;;;;5031079;28;20045;-53
2023/09/08 04:22:03;;;;;;;7.15;5.43;;;17.10;74.20;;;;;;5032190;28;20014;-52
2023/09/08 04:24:28;;;;;;;8.57;5.25;;;17.10;74.50;;;;;;5031604;28;20037;-51
2023/09/08 04:26:54;;;;;;;7.78;5.45;;;17.10;74.40;;;;;;5030979;28;20082;-52
2023/09/08 04:29:19;;;;;;;9.65;6.05;;;17.10;74.20;;;;;;5030426;28;20037;-52
2023/09/08 04:31:45;;;;;;;7.65;5.90;;;17.20;74.30;;;;;;5032610;28;20034;-55
2023/09/08 04:34:11;;;;;;;8.38;6.13;;;17.20;74.20;;;;;;5035076;28;20037;-52
2023/09/08 04:36:37;;;;;;;9.38;6.45;;;17.20;74.20;;;;;;5034446;28;20030;-52
2023/09/08 04:39:02;;;;;;;8.60;6.57;;;17.20;74.10;;;;;;5036980;28;20086;-53
2023/09/08 04:41:28;;;;;;;8.50;6.03;;;17.20;74.10;;;;;;5039120;28;20026;-52
2023/09/08 04:43:55;;;;;;;10.45;6.30;;;17.20;73.90;;;;;;5037071;28;20178;-50
2023/09/08 04:46:20;;;;;;;9.25;6.35;;;17.20;73.90;;;;;;5038871;28;20045;-52
2023/09/08 04:48:46;;;;;;;8.57;6.30;;;17.30;74.00;;;;;;5038842;28;20041;-52
2023/09/08 04:51:12;;;;;;;9.15;6.65;;;17.30;73.90;;;;;;5038435;28;20022;-49
2023/09/08 04:53:37;;;;;;;9.15;6.45;;;17.30;73.80;;;;;;5037785;28;20038;-49
2023/09/08 04:56:03;;;;;;;9.13;6.65;;;17.40;73.90;;;;;;5036836;28;20049;-51
2023/09/08 04:58:29;;;;;;;10.23;6.97;;;17.30;73.80;;;;;;5036564;28;20050;-51
2023/09/08 05:00:55;;;;;;;10.85;6.13;;;17.40;73.90;;;;;;5038179;28;20069;-50
2023/09/08 05:03:20;;;;;;;9.68;6.43;;;17.40;74.00;;;;;;5037030;28;20037;-53
2023/09/08 05:05:46;;;;;;;8.38;6.38;;;17.50;74.10;;;;;;5039264;28;20038;-51
2023/09/08 05:08:12;;;;;;;9.13;6.32;;;17.50;73.90;;;;;;5039445;28;20033;-50
2023/09/08 05:10:37;;;;;;;10.88;6.65;;;17.50;73.60;;;;;;5039724;28;20018;-51
2023/09/08 05:13:03;;;;;;;10.80;7.25;;;17.50;73.50;;;;;;5038571;28;20018;-50
2023/09/08 05:15:30;;;;;;;9.38;5.97;;;17.60;73.40;;;;;;5039008;28;20028;-51
2023/09/08 05:17:56;;;;;;;10.50;6.55;;;17.60;73.40;;;;;;5039433;28;20025;-51
2023/09/08 05:20:21;;;;;;;9.63;5.97;;;17.60;73.40;;;;;;5039185;28;20018;-51
2023/09/08 05:22:47;;;;;;;9.75;6.13;;;17.60;73.60;;;;;;5039351;28;20010;-51
2023/09/08 05:25:13;;;;;;;9.13;6.30;;;17.70;73.60;;;;;;5039269;28;20022;-50
2023/09/08 05:27:38;;;;;;;8.77;5.40;;;17.80;73.50;;;;;;5039057;28;20033;-51
2023/09/08 05:30:05;;;;;;;7.82;5.60;;;17.80;73.50;;;;;;5039338;28;20037;-50
2023/09/08 05:32:31;;;;;;;7.18;5.95;;;17.90;73.50;;;;;;5039256;28;20088;-49
2023/09/08 05:34:57;;;;;;;9.73;6.20;;;18.00;73.30;;;;;;5039255;28;20014;-50
2023/09/08 05:37:22;;;;;;;7.18;5.47;;;18.20;73.20;;;;;;5038989;28;20045;-48
2023/09/08 05:39:48;;;;;;;8.48;5.63;;;18.30;72.80;;;;;;5039043;28;20010;-51
2023/09/08 05:42:13;;;;;;;9.20;5.30;;;18.50;72.30;;;;;;5038666;28;20033;-50
2023/09/08 05:44:40;;;;;;;7.57;5.50;;;18.70;71.70;;;;;;5038903;28;20224;-49
2023/09/08 05:47:05;;;;;;;7.53;5.45;;;18.70;71.20;;;;;;5038894;28;20026;-49
2023/09/08 05:49:31;;;;;;;10.60;5.93;;;18.80;70.90;;;;;;5037825;28;20022;-50
2023/09/08 05:51:56;;;;;;;6.90;4.82;;;18.80;70.70;;;;;;5037873;28;20010;-52
2023/09/08 05:54:22;;;;;;;7.57;5.13;;;18.80;70.60;;;;;;5038255;28;20034;-48
2023/09/08 05:56:48;;;;;;;6.63;5.40;;;18.90;70.20;;;;;;5038409;28;20010;-53
2023/09/08 05:59:13;;;;;;;8.30;4.40;;;18.90;69.90;;;;;;5038242;28;20030;-52
2023/09/08 06:01:39;;;;;;;7.15;4.85;;;18.90;69.50;;;;;;5038550;28;20025;-49
2023/09/08 06:04:05;;;;;;;7.93;4.70;;;19.00;69.40;;;;;;5037199;28;20026;-50
2023/09/08 06:06:31;;;;;;;7.63;4.57;;;19.00;69.20;;;;;;5037740;28;20040;-48
2023/09/08 06:08:56;;;;;;;8.07;4.93;;;19.00;69.20;;;;;;5037869;28;20041;-49
2023/09/08 06:11:22;;;;;;;5.90;4.20;;;19.10;69.40;;;;;;5037794;28;20033;-50
2023/09/08 06:13:47;;;;;;;7.57;5.05;;;19.10;69.00;;;;;;5021214;28;20041;-50
2023/09/08 06:16:13;;;;;;;6.97;4.38;;;19.10;69.00;;;;;;5038497;28;20037;-51
2023/09/08 06:18:43;;;;;;;5.03;3.78;;;19.20;68.90;;;;;;5038286;28;20013;-51
2023/09/08 06:21:09;;;;;;;6.75;4.38;;;19.20;68.80;;;;;;5035129;28;20029;-53
2023/09/08 06:23:35;;;;;;;5.80;4.30;;;19.30;68.50;;;;;;5034162;28;20025;-51
2023/09/08 06:26:01;;;;;;;6.85;4.68;;;19.30;68.50;;;;;;5032046;28;20038;-53
2023/09/08 06:28:30;;;;;;;7.95;4.72;;;19.40;69.20;;;;;;5047736;28;20034;-53
2023/09/08 06:30:55;;;;;;;6.95;4.78;;;19.40;68.50;;;;;;5052682;28;20048;-49
2023/09/08 06:33:22;;;;;;;6.78;4.55;;;19.50;68.50;;;;;;5056910;28;20022;-52
2023/09/08 06:35:48;;;;;;;8.32;4.28;;;19.60;68.70;;;;;;5031289;28;20026;-50
2023/09/08 06:38:13;;;;;;;7.20;4.60;;;19.60;68.70;;;;;;5035297;28;20018;-49
2023/09/08 06:40:39;;;;;;;6.63;4.70;;;19.70;68.70;;;;;;5037467;28;20025;-50
2023/09/08 06:43:05;;;;;;;5.88;4.15;;;19.70;68.50;;;;;;5045087;28;20024;-49
2023/09/08 06:45:31;;;;;;;6.38;4.30;;;19.80;68.30;;;;;;5044295;28;20033;-50
2023/09/08 06:47:57;;;;;;;6.35;4.43;;;19.80;67.90;;;;;;5044419;28;20044;-50
2023/09/08 06:50:23;;;;;;;10.65;5.53;;;19.90;67.70;;;;;;5043398;28;20014;-49
2023/09/08 06:52:49;;;;;;;6.53;4.20;;;19.90;67.00;;;;;;5045564;28;20082;-52
2023/09/08 06:55:16;;;;;;;6.97;4.00;;;20.00;66.80;;;;;;5045568;28;20025;-52
2023/09/08 06:57:42;;;;;;;6.03;3.88;;;20.10;66.30;;;;;;5030664;28;20041;-52
2023/09/08 07:00:11;;;;;;;6.25;3.50;;;20.10;66.00;;;;;;5030109;28;20069;-51
2023/09/08 07:02:37;;;;;;;5.18;3.50;;;20.10;65.60;;;;;;5036513;28;20037;-50
2023/09/08 07:05:07;;;;;;;6.10;3.55;;;20.20;65.40;;;;;;5034799;28;20013;-52
2023/09/08 07:07:36;;;;;;;5.57;3.67;;;20.20;65.30;;;;;;5038093;28;20102;-52
2023/09/08 07:10:04;;;;;;;5.00;3.75;;;20.20;64.80;;;;;;5035209;28;20050;-51
2023/09/08 07:12:29;;;;;;;5.07;3.50;;;20.30;64.40;;;;;;5042699;28;20025;-51
2023/09/08 07:14:56;;;;;;;7.63;3.65;;;20.30;64.40;;;;;;5036202;28;20097;-49
2023/09/08 07:17:23;;;;;;;4.82;3.22;;;20.40;64.30;;;;;;5033985;28;20033;-53
2023/09/08 07:19:51;;;;;;;5.57;3.58;;;20.40;63.90;;;;;;5043349;28;20038;-49
2023/09/08 07:22:17;;;;;;;5.35;3.72;;;20.40;63.80;;;;;;5037544;28;20033;-53
2023/09/08 07:24:44;;;;;;;7.30;3.60;;;20.40;63.90;;;;;;5035513;28;20093;-52
2023/09/08 07:27:10;;;;;;;5.72;3.60;;;20.50;63.90;;;;;;5036341;28;20050;-53
2023/09/08 07:29:35;;;;;;;6.18;3.45;;;20.50;63.50;;;;;;5040780;28;20018;-52
2023/09/08 07:32:01;;;;;;;5.55;4.00;;;20.50;63.40;;;;;;5032760;28;20053;-52
2023/09/08 07:34:27;;;;;;;5.32;3.83;;;20.50;63.60;;;;;;5038088;28;20041;-52
2023/09/08 07:36:52;;;;;;;6.80;4.00;;;20.50;63.90;;;;;;5028502;28;20038;-51
2023/09/08 07:39:18;;;;;;;3.67;3.00;;;20.60;64.00;;;;;;5043055;28;20010;-54
2023/09/08 07:41:43;;;;;;;7.43;3.50;;;20.60;63.90;;;;;;5035584;28;20078;-53
2023/09/08 07:44:10;;;;;;;6.80;4.10;;;20.60;63.60;;;;;;5046134;28;20017;-53
2023/09/08 07:46:35;;;;;;;5.45;3.00;;;20.60;63.80;;;;;;5035332;28;20022;-52
2023/09/08 07:49:01;;;;;;;8.15;3.22;;;20.60;63.30;;;;;;5036090;28;20048;-51
2023/09/08 07:51:27;;;;;;;4.75;3.35;;;20.60;62.80;;;;;;5030648;28;20026;-52
2023/09/08 07:53:53;;;;;;;5.22;3.13;;;20.60;62.30;;;;;;5023197;28;20038;-52
2023/09/08 07:56:19;;;;;;;4.10;3.00;;;20.60;62.00;;;;;;5029730;28;20038;-50
2023/09/08 07:58:45;;;;;;;4.15;3.00;;;20.60;61.70;;;;;;5028939;28;20025;-51
2023/09/08 08:01:12;;;;;;;4.38;3.30;;;20.60;61.60;;;;;;5031520;28;20041;-51
2023/09/08 08:03:38;;;;;;;7.20;3.42;;;20.60;61.50;;;;;;5033931;28;20052;-53
2023/09/08 08:06:04;;;;;;;4.00;2.88;;;20.60;61.60;;;;;;5031739;28;20089;-51
2023/09/08 08:08:30;;;;;;;5.80;3.63;;;20.60;61.20;;;;;;5036473;28;20037;-52
2023/09/08 08:10:56;;;;;;;6.82;3.28;;;20.60;60.80;;;;;;5037612;28;20072;-52
2023/09/08 08:13:21;;;;;;;5.65;3.15;;;20.60;60.70;;;;;;5042150;28;20018;-51
2023/09/08 08:15:47;;;;;;;4.47;2.85;;;20.60;60.60;;;;;;5030682;28;20017;-53
2023/09/08 08:18:13;;;;;;;5.88;3.10;;;20.60;61.00;;;;;;5040347;28;20030;-50
2023/09/08 08:20:39;;;;;;;5.28;3.13;;;20.60;61.50;;;;;;5042085;28;20022;-54
2023/09/08 08:23:06;;;;;;;4.18;3.25;;;20.60;61.50;;;;;;5044237;28;20018;-51
2023/09/08 08:25:33;;;;;;;5.75;3.28;;;20.60;60.70;;;;;;5036990;28;20073;-50
2023/09/08 08:28:02;;;;;;;6.30;3.10;;;20.60;60.20;;;;;;5038646;28;20013;-53
2023/09/08 08:30:28;;;;;;;4.32;3.42;;;20.60;59.70;;;;;;5039163;28;20033;-53
2023/09/08 08:32:54;;;;;;;4.43;3.00;;;20.60;59.70;;;;;;5043094;28;20014;-51
2023/09/08 08:35:20;;;;;;;5.97;2.95;;;20.60;59.70;;;;;;5043307;28;20049;-49
2023/09/08 08:37:46;;;;;;;3.85;2.75;;;20.60;59.50;;;;;;5041768;28;20054;-51
2023/09/08 08:40:12;;;;;;;4.57;3.10;;;20.60;59.30;;;;;;5041545;28;20033;-49
2023/09/08 08:42:38;;;;;;;5.80;2.75;;;20.60;59.30;;;;;;5039052;28;20014;-53
2023/09/08 08:45:05;;;;;;;3.17;2.70;;;20.60;59.40;;;;;;5040667;28;20049;-51
2023/09/08 08:47:31;;;;;;;3.55;2.63;;;20.60;59.20;;;;;;5039746;28;20030;-51
2023/09/08 08:49:58;;;;;;;5.05;2.75;;;20.60;58.80;;;;;;5042706;28;20037;-50
2023/09/08 08:52:25;;;;;;;5.43;3.55;;;20.60;58.60;;;;;;5039240;28;20022;-51
2023/09/08 08:54:51;;;;;;;5.65;3.40;;;20.60;58.60;;;;;;5035153;28;20062;-51
2023/09/08 08:57:17;;;;;;;4.45;3.28;;;20.60;58.60;;;;;;5037599;28;20014;-50
2023/09/08 08:59:43;;;;;;;5.00;3.20;;;20.60;58.80;;;;;;5036804;28;20074;-49
2023/09/08 09:02:11;;;;;;;3.83;2.63;;;20.60;58.80;;;;;;5047349;28;20025;-50
2023/09/08 09:04:38;;;;;;;4.50;2.83;;;20.60;59.10;;;;;;5043514;28;20026;-49
2023/09/08 09:07:06;;;;;;;5.22;2.95;;;20.60;58.50;;;;;;5044143;28;20049;-51
2023/09/08 09:09:32;;;;;;;3.63;2.95;;;20.60;58.20;;;;;;5042757;28;20045;-53
2023/09/08 09:11:58;;;;;;;6.28;2.80;;;20.60;58.00;;;;;;5036952;28;20057;-51
2023/09/08 09:14:23;;;;;;;4.60;2.85;;;20.60;58.00;;;;;;5035342;28;20022;-53
2023/09/08 09:16:49;;;;;;;5.20;2.65;;;20.60;58.00;;;;;;5040681;28;20033;-50
2023/09/08 09:19:27;;;;;;;5.60;3.40;;;20.60;57.80;;;;;;5040690;28;20017;-51
2023/09/08 09:21:54;;;;;;;6.30;4.00;;;20.60;58.30;;;;;;5034170;28;20082;-53
2023/09/08 09:24:36;;;;;;;5.55;3.40;;;20.60;57.60;;;;;;5036053;28;20041;-51
2023/09/08 09:27:05;;;;;;;6.18;3.67;;;20.60;57.80;;;;;;5039530;28;20041;-51
2023/09/08 09:29:31;;;;;;;9.63;4.00;;;20.60;57.70;;;;;;5037449;28;20029;-50
2023/09/08 09:32:02;;;;;;;4.93;3.17;;;20.60;57.70;;;;;;5027650;28;20037;-53
2023/09/08 09:34:28;;;;;;;3.80;2.78;;;20.70;57.80;;;;;;5036859;28;20094;-52
2023/09/08 09:36:53;;;;;;;2.80;2.50;;;20.60;57.40;;;;;;5046360;28;20037;-49
2023/09/08 09:39:24;;;;;;;3.67;2.58;;;20.70;57.40;;;;;;5041290;28;21093;-51
2023/09/08 09:41:54;;;;;;;4.45;2.45;;;20.70;57.00;;;;;;5034340;28;20113;-54
2023/09/08 09:44:21;;;;;;;4.57;2.90;;;20.70;57.20;;;;;;5036628;28;20026;-50
2023/09/08 09:46:48;;;;;;;4.25;2.67;;;20.70;57.30;;;;;;5040998;28;20038;-50
2023/09/08 09:49:17;;;;;;;4.60;2.83;;;20.70;57.60;;;;;;5035965;28;20061;-53
2023/09/08 09:51:44;;;;;;;2.97;2.50;;;20.70;57.90;;;;;;5028789;28;20014;-51
2023/09/08 09:54:11;;;;;;;4.55;2.65;;;20.70;57.60;;;;;;5032455;28;20026;-50
2023/09/08 09:56:39;;;;;;;4.53;2.53;;;20.80;57.30;;;;;;5027210;28;20033;-54
2023/09/08 09:59:08;;;;;;;5.75;2.30;;;20.80;56.90;;;;;;5041988;28;20037;-54
2023/09/08 10:01:34;;;;;;;2.60;2.22;;;20.80;56.60;;;;;;5029624;28;20041;-54
2023/09/08 10:04:03;;;;;;;3.53;2.30;;;20.80;56.80;;;;;;5037795;28;20026;-52
2023/09/08 10:06:33;;;;;;;7.60;2.88;;;20.80;56.60;;;;;;5036843;28;20076;-52
2023/09/08 10:09:02;;;;;;;3.03;2.47;;;20.80;56.20;;;;;;5029600;28;20017;-51
2023/09/08 10:11:33;;;;;;;4.70;2.40;;;20.90;56.00;;;;;;5034180;28;20273;-54
2023/09/08 10:14:00;;;;;;;5.57;2.33;;;20.90;55.90;;;;;;5034704;28;20022;-52
2023/09/08 10:16:28;;;;;;;3.97;2.50;;;20.90;55.80;;;;;;5031377;28;20045;-51
2023/09/08 10:18:57;;;;;;;3.17;2.28;;;20.90;55.30;;;;;;5031084;28;20026;-52
2023/09/08 10:21:25;;;;;;;4.35;2.42;;;20.90;54.90;;;;;;5028215;28;20022;-52
2023/09/08 10:23:59;;;;;;;3.70;2.00;;;20.90;55.00;;;;;;5037089;28;20035;-50
2023/09/08 10:26:28;;;;;;;5.38;3.20;;;20.90;55.00;;;;;;5043455;28;20026;-52
2023/09/08 10:28:57;;;;;;;4.93;2.03;;;20.90;54.90;;;;;;5037006;28;20047;-53
2023/09/08 10:31:26;;;;;;;3.17;2.28;;;20.90;54.70;;;;;;5039721;28;20040;-52
2023/09/08 10:33:56;;;;;;;2.92;2.10;;;20.90;54.80;;;;;;5036112;28;20037;-51
2023/09/08 10:36:26;;;;;;;4.00;2.08;;;21.00;54.90;;;;;;5033485;28;20025;-50
2023/09/08 10:38:54;;;;;;;2.88;1.98;;;21.00;54.90;;;;;;5031704;28;20037;-52
2023/09/08 10:41:22;;;;;;;5.35;2.33;;;21.00;54.80;;;;;;5031325;28;20053;-50
2023/09/08 10:44:07;;;;;;;4.18;2.08;;;21.00;54.70;;;;;;5029138;28;20203;-48
2023/09/08 10:46:34;;;;;;;3.13;2.03;;;21.00;54.30;;;;;;5025572;28;20112;-50
2023/09/08 10:49:07;;;;;;;7.07;2.55;;;21.00;54.20;;;;;;5025258;28;20562;-53
2023/09/08 10:51:34;;;;;;;3.28;2.30;;;21.10;54.20;;;;;;5023167;28;20078;-51
2023/09/08 10:54:00;;;;;;;3.58;2.35;;;21.10;54.40;;;;;;5022644;28;20038;-50
2023/09/08 10:56:56;;;;;;;7.03;2.38;;;21.10;54.30;;;;;;5029991;28;20060;-54
2023/09/08 10:59:29;;;;;;;3.95;2.13;;;21.20;54.00;;;;;;5027213;28;21070;-52
2023/09/08 11:01:55;;;;;;;2.50;2.17;;;21.10;53.90;;;;;;5027531;28;20042;-52
2023/09/08 11:04:23;;;;;;;4.22;2.33;;;21.10;53.60;;;;;;5014919;28;20034;-49
2023/09/08 11:06:49;;;;;;;6.65;2.78;;;21.10;53.60;;;;;;5009660;28;20030;-50
2023/09/08 11:09:16;;;;;;;4.43;2.30;;;21.10;53.50;;;;;;5031289;28;20030;-50
2023/09/08 11:11:42;;;;;;;2.97;2.00;;;21.20;53.20;;;;;;5030305;28;20077;-51
2023/09/08 11:14:08;;;;;;;3.88;2.13;;;21.20;53.00;;;;;;5027608;28;20057;-49
2023/09/08 11:16:35;;;;;;;5.78;4.32;;;21.20;52.80;;;;;;5027717;28;20077;-50
2023/09/08 11:19:04;;;;;;;7.30;3.72;;;21.20;52.70;;;;;;5031686;28;20037;-52
2023/09/08 11:21:34;;;;;;;3.80;2.38;;;21.20;52.70;;;;;;5031646;28;20018;-53
2023/09/08 11:24:01;;;;;;;2.93;2.30;;;21.20;52.80;;;;;;5023774;28;20037;-52
2023/09/08 11:26:27;;;;;;;3.95;2.15;;;21.20;52.70;;;;;;5034432;28;20060;-52
2023/09/08 11:28:54;;;;;;;3.38;2.10;;;21.30;52.40;;;;;;5029306;28;20018;-53
2023/09/08 11:31:20;;;;;;;3.60;2.20;;;21.20;52.60;;;;;;5024810;28;20034;-52
2023/09/08 11:33:48;;;;;;;4.78;2.28;;;21.20;52.30;;;;;;5028134;28;20074;-50
2023/09/08 11:36:15;;;;;;;2.97;2.20;;;21.30;52.70;;;;;;5023164;28;20090;-49
2023/09/08 11:38:44;;;;;;;3.33;2.00;;;21.30;53.20;;;;;;5030478;28;20061;-49
2023/09/08 11:41:10;;;;;;;3.97;2.47;;;21.30;53.30;;;;;;5030136;28;20046;-51
2023/09/08 11:43:36;;;;;;;2.80;2.00;;;21.30;53.10;;;;;;5038030;28;20022;-55
2023/09/08 11:46:02;;;;;;;3.97;3.30;;;21.30;52.80;;;;;;5037264;28;20030;-52
2023/09/08 11:48:28;;;;;;;6.88;3.92;;;21.30;52.70;;;;;;5026705;28;20070;-51
2023/09/08 11:50:54;;;;;;;4.57;3.10;;;21.30;52.80;;;;;;5030740;28;20267;-51
2023/09/08 11:53:22;;;;;;;4.47;2.50;;;21.30;53.10;;;;;;5032974;28;20089;-54
2023/09/08 11:55:49;;;;;;;6.18;2.72;;;21.30;53.50;;;;;;5035311;28;20021;-52
2023/09/08 11:58:15;;;;;;;5.03;2.60;;;21.30;54.00;;;;;;5027414;28;20022;-50
2023/09/08 12:00:41;;;;;;;3.58;2.80;;;21.30;54.20;;;;;;5034234;28;20040;-51
2023/09/08 12:03:15;;;;;;;2.75;2.40;;;21.40;54.20;;;;;;5029377;28;20034;-54
2023/09/08 12:05:42;;;;;;;5.20;2.38;;;21.40;54.30;;;;;;5030972;28;20018;-52
2023/09/08 12:08:07;;;;;;;4.03;2.50;;;21.40;54.60;;;;;;5031065;28;20045;-50
2023/09/08 12:10:43;;;;;;;3.60;2.38;;;21.40;54.90;;;;;;5027585;28;20037;-51
2023/09/08 12:13:09;;;;;;;3.47;2.50;;;21.40;54.40;;;;;;5030724;28;20013;-54
2023/09/08 12:15:43;;;;;;;3.63;2.30;;;21.40;54.20;;;;;;5029066;28;20040;-54
2023/09/08 12:18:13;;;;;;;2.70;2.42;;;21.40;54.20;;;;;;5037474;28;20013;-52
2023/09/08 12:20:39;;;;;;;3.75;2.65;;;21.40;53.70;;;;;;5036581;28;20033;-52
2023/09/08 12:23:16;;;;;;;4.47;2.35;;;21.40;53.50;;;;;;5038211;28;20013;-53
2023/09/08 12:25:52;;;;;;;2.42;2.20;;;21.40;53.60;;;;;;5034222;28;20029;-52
2023/09/08 12:28:20;;;;;;;4.00;3.00;;;21.40;52.90;;;;;;5028704;28;20073;-50
2023/09/08 12:30:46;;;;;;;4.65;2.72;;;21.40;52.90;;;;;;5021426;28;20033;-54
2023/09/08 12:33:14;;;;;;;3.63;2.60;;;21.40;52.90;;;;;;5033330;28;20042;-49
2023/09/08 12:35:43;;;;;;;3.35;2.45;;;21.40;53.30;;;;;;5030076;28;20053;-53
2023/09/08 12:38:09;;;;;;;4.93;2.45;;;21.50;53.80;;;;;;5022836;28;20034;-50
2023/09/08 12:40:36;;;;;;;5.40;2.85;;;21.40;53.70;;;;;;5033397;28;20021;-54
2023/09/08 12:43:02;;;;;;;2.97;2.67;;;21.50;53.60;;;;;;5031107;28;20092;-51